首页
METAR-TAF:

METAR-TAF

机场 :

滑铁卢, 艾奥瓦州, 美国

纬度: 42-33-16N, 经度: 092-24-04W, 海拔: 266米

当前天气观测

该预报发布于49分钟前的05:54 UTC
风速4节,风向南转西南
温度 17°C
湿度 82%
气压 1007 hPa
能見度: 16.1公里
天空无云

METAR: KALO 250554Z AUTO 21004KT 10SM CLR 17/14 A2975 RMK AO2 SLP072 T01720139 10244 20167 402560167 50004

时间: 01:43 (06:43 UTC)

预报

该预报发布于1小时和23分钟前的05:20 UTC
预报有效从25日的 06点(UTC)到 26日的 06点(UTC)
风速5节,风向西南
能見度: 10公里
多云层高于7000英尺
从 25日的 0700点(UTC)
风速7节,风向西
能見度: 10公里
少量云层高于7000英尺
从 25日的 2100点(UTC)
风速11节,风向西
能見度: 10公里
多云层高于4000英尺
从 26日的 0100点(UTC)
风速5节,风向西
能見度: 10公里
少量云层高于4000英尺
多云层高于25000英尺
从 26日的 0400点(UTC)
风速4节,风向西
能見度: 10公里
散云层高于25000英尺

TAF: KALO 250520Z 2506/2606 23005KT P6SM BKN070 FM250700 27007KT P6SM FEW070 FM252100 26011KT P6SM BKN040 FM260100 26005KT P6SM FEW040 BKN250 FM260400 26004KT P6SM SCT250

超过4000个机场的气象观测和天气预报(METAR&TAF报告)。

可查询的气象台以黄色和红色小点在地图上表示。

将鼠标移到小点上方,可查看气象台名称。

然后点击查看天气观测和预报。

如需切换地图:点击带黑十字的绿色按钮放大地图;点击带横线的绿色按钮缩小地图;或者点击绿色箭头查看邻近地区的地图。


METAR-TAF: